Time;durP1;ratioP1;P1;durP2;ratioP2;P2;SDS_P1;SDS_P2;PMS_P1;PMS_P2;Temp;Humidity;BMP_temperature;BMP_pressure;BME280_temperature;BME280_humidity;BME280_pressure;Samples;Min_cycle;Max_cycle;Signal;HPM_P1;HPM_P2
2022/10/27 00:01:02;;;;;;;15.30;5.93;;;;;;;;;;4997033;28;20026;-82
2022/10/27 00:03:28;;;;;;;11.65;5.30;;;;;;;;;;4997003;28;20033;-82
2022/10/27 00:05:54;;;;;;;15.27;5.53;;;;;;;;;;4997521;28;20019;-82
2022/10/27 00:08:21;;;;;;;12.95;5.70;;;;;;;;;;4977483;28;20065;-82
2022/10/27 00:10:57;;;;;;;13.02;5.40;;;;;;;;;;4995208;28;20022;-82
2022/10/27 00:13:23;;;;;;;12.45;6.25;;;;;;;;;;4994956;28;20029;-82
2022/10/27 00:15:56;;;;;;;13.65;5.75;;;;;;;;;;5004392;28;20029;-82
2022/10/27 00:18:22;;;;;;;10.85;5.55;;;;;;;;;;5014424;28;20488;-82
2022/10/27 00:20:58;;;;;;;16.75;5.97;;;;;;;;;;4993428;28;20035;-82
2022/10/27 00:23:24;;;;;;;20.52;6.13;;;;;;;;;;4994723;28;20038;-82
2022/10/27 00:25:54;;;;;;;13.77;6.07;;;;;;;;;;4994662;28;20026;-82
2022/10/27 00:28:20;;;;;;;12.95;5.88;;;;;;;;;;4994613;28;20061;-82
2022/10/27 00:30:46;;;;;;;11.48;5.70;;;;;;;;;;4993087;28;20469;-82
2022/10/27 00:33:12;;;;;;;14.68;5.97;;;;;;;;;;4976813;28;20038;-82
2022/10/27 00:35:38;;;;;;;12.82;5.38;;;;;;;;;;4976884;28;20031;-82
2022/10/27 00:38:04;;;;;;;10.23;5.72;;;;;;;;;;4992993;28;20084;-82
2022/10/27 00:40:36;;;;;;;13.02;5.50;;;;;;;;;;4976885;28;20050;-82
2022/10/27 00:43:02;;;;;;;11.50;5.18;;;;;;;;;;4993074;28;20537;-82
2022/10/27 00:45:28;;;;;;;12.38;6.10;;;;;;;;;;4977064;28;20034;-82
2022/10/27 00:47:54;;;;;;;14.27;5.53;;;;;;;;;;4976950;28;20088;-82
2022/10/27 00:50:22;;;;;;;13.50;6.85;;;;;;;;;;4992181;28;20030;-82
2022/10/27 00:52:54;;;;;;;12.52;6.13;;;;;;;;;;4992939;28;20424;-82
2022/10/27 00:55:22;;;;;;;14.77;6.07;;;;;;;;;;4994166;28;20018;-82
2022/10/27 00:57:51;;;;;;;10.57;5.03;;;;;;;;;;4994715;28;20026;-82
2022/10/27 01:00:17;;;;;;;12.00;5.72;;;;;;;;;;4993998;28;20026;-82
2022/10/27 01:02:43;;;;;;;9.60;5.25;;;;;;;;;;4976651;28;20436;-82
2022/10/27 01:05:12;;;;;;;10.93;6.00;;;;;;;;;;5003757;28;20060;-83
2022/10/27 01:07:40;;;;;;;13.15;5.57;;;;;;;;;;4996008;28;20030;-82
2022/10/27 01:10:06;;;;;;;16.75;6.40;;;;;;;;;;5013541;28;20029;-82
2022/10/27 01:12:32;;;;;;;12.68;5.32;;;;;;;;;;4979776;28;20121;-82
2022/10/27 01:14:59;;;;;;;18.85;5.88;;;;;;;;;;4995745;28;20385;-82
2022/10/27 01:17:40;;;;;;;11.30;5.85;;;;;;;;;;4996037;28;20026;-82
2022/10/27 01:20:25;;;;;;;12.05;5.40;;;;;;;;;;5013408;28;20088;-82
2022/10/27 01:23:11;;;;;;;14.40;5.15;;;;;;;;;;4995451;28;20030;-82
2022/10/27 01:25:47;;;;;;;17.33;6.95;;;;;;;;;;4995528;28;20026;-82
2022/10/27 01:28:32;;;;;;;15.00;5.90;;;;;;;;;;4995480;28;20026;-82
2022/10/27 01:30:58;;;;;;;14.27;5.93;;;;;;;;;;5013117;28;20045;-82
2022/10/27 01:33:30;;;;;;;13.65;6.43;;;;;;;;;;4992077;28;20023;-82
2022/10/27 01:36:04;;;;;;;14.80;6.65;;;;;;;;;;4992204;28;20045;-82
2022/10/27 01:38:31;;;;;;;14.68;6.75;;;;;;;;;;4992006;28;20172;-82
2022/10/27 01:41:00;;;;;;;18.45;8.13;;;;;;;;;;4992096;28;20451;-82
2022/10/27 01:43:28;;;;;;;17.63;8.27;;;;;;;;;;4993606;28;20049;-82
2022/10/27 01:45:55;;;;;;;14.68;8.10;;;;;;;;;;4992000;28;20023;-82
2022/10/27 01:48:21;;;;;;;13.63;8.18;;;;;;;;;;4992260;28;20030;-83
2022/10/27 01:50:48;;;;;;;14.20;7.50;;;;;;;;;;4991957;28;20026;-82
2022/10/27 01:53:14;;;;;;;16.15;8.27;;;;;;;;;;4981353;28;20061;-82
2022/10/27 01:55:59;;;;;;;15.30;7.55;;;;;;;;;;4982548;28;20121;-82
2022/10/27 01:58:31;;;;;;;16.48;8.13;;;;;;;;;;4998546;28;20022;-82
2022/10/27 02:00:57;;;;;;;15.63;7.18;;;;;;;;;;4998500;28;20034;-82
2022/10/27 02:03:29;;;;;;;12.32;7.20;;;;;;;;;;4999681;28;20037;-82
2022/10/27 02:06:04;;;;;;;17.70;6.47;;;;;;;;;;4999653;28;20437;-82
2022/10/27 02:08:42;;;;;;;20.27;7.35;;;;;;;;;;4982026;28;20473;-82
2022/10/27 02:11:09;;;;;;;14.63;6.15;;;;;;;;;;4982236;28;20053;-82
2022/10/27 02:13:37;;;;;;;12.10;6.85;;;;;;;;;;4982039;28;20029;-82
2022/10/27 02:16:04;;;;;;;13.07;6.32;;;;;;;;;;4995630;28;20030;-82
2022/10/27 02:18:33;;;;;;;21.42;7.88;;;;;;;;;;5001806;28;20029;-82
2022/10/27 02:21:03;;;;;;;13.50;5.70;;;;;;;;;;5000768;28;20480;-82
2022/10/27 02:23:30;;;;;;;11.95;6.05;;;;;;;;;;5000246;28;20034;-82
2022/10/27 02:25:56;;;;;;;17.48;6.60;;;;;;;;;;5016781;28;20431;-82
2022/10/27 02:28:25;;;;;;;12.57;5.93;;;;;;;;;;5017984;28;20026;-82
2022/10/27 02:30:52;;;;;;;15.68;7.30;;;;;;;;;;5000300;28;20034;-82
2022/10/27 02:33:18;;;;;;;17.02;8.45;;;;;;;;;;4994340;28;20018;-82
2022/10/27 02:35:44;;;;;;;17.35;7.90;;;;;;;;;;4997882;28;20018;-82
2022/10/27 02:38:10;;;;;;;18.73;7.78;;;;;;;;;;4998332;28;20026;-82
2022/10/27 02:40:36;;;;;;;14.80;7.00;;;;;;;;;;4981865;28;20104;-82
2022/10/27 02:43:02;;;;;;;13.80;6.95;;;;;;;;;;4998105;28;20329;-82
2022/10/27 02:45:28;;;;;;;15.52;7.35;;;;;;;;;;4982300;28;20100;-82
2022/10/27 02:47:54;;;;;;;14.68;6.55;;;;;;;;;;4982125;28;20121;-82
2022/10/27 02:50:20;;;;;;;12.95;7.15;;;;;;;;;;4999257;28;20019;-82
2022/10/27 02:52:48;;;;;;;11.73;6.45;;;;;;;;;;4994119;28;20054;-82
2022/10/27 02:55:14;;;;;;;16.02;7.28;;;;;;;;;;5000607;28;20056;-82
2022/10/27 02:57:40;;;;;;;22.83;7.63;;;;;;;;;;5000762;28;20041;-82
2022/10/27 03:00:06;;;;;;;18.60;7.50;;;;;;;;;;5001418;28;20045;-82
2022/10/27 03:02:32;;;;;;;14.80;8.32;;;;;;;;;;5018759;28;20034;-82
2022/10/27 03:04:58;;;;;;;15.02;7.43;;;;;;;;;;5003911;28;20030;-82
2022/10/27 03:07:25;;;;;;;18.80;7.65;;;;;;;;;;4961975;28;20026;-82
2022/10/27 03:09:51;;;;;;;17.35;8.35;;;;;;;;;;4977846;28;20030;-82
2022/10/27 03:12:17;;;;;;;16.85;7.63;;;;;;;;;;4977809;28;20022;-82
2022/10/27 03:14:43;;;;;;;17.45;8.55;;;;;;;;;;4994805;28;20034;-82
2022/10/27 03:17:09;;;;;;;15.25;7.28;;;;;;;;;;5007368;28;20061;-82
2022/10/27 03:19:35;;;;;;;17.15;7.63;;;;;;;;;;4993855;28;20034;-82
2022/10/27 03:22:01;;;;;;;17.10;7.30;;;;;;;;;;4994022;28;20027;-82
2022/10/27 03:24:27;;;;;;;16.75;7.32;;;;;;;;;;4977691;28;20041;-82
2022/10/27 03:26:53;;;;;;;16.63;8.23;;;;;;;;;;4977730;28;20062;-82
2022/10/27 03:29:19;;;;;;;14.73;7.75;;;;;;;;;;4977622;28;20031;-82
2022/10/27 03:31:45;;;;;;;15.32;7.20;;;;;;;;;;4977920;28;20022;-82
2022/10/27 03:34:11;;;;;;;19.08;6.78;;;;;;;;;;5007380;28;20481;-82
2022/10/27 03:36:37;;;;;;;14.05;6.95;;;;;;;;;;4997725;28;20037;-82
2022/10/27 03:39:03;;;;;;;16.98;7.28;;;;;;;;;;5013750;28;20045;-82
2022/10/27 03:41:29;;;;;;;15.15;7.70;;;;;;;;;;5015161;28;20084;-82
2022/10/27 03:43:55;;;;;;;15.50;7.88;;;;;;;;;;5014652;28;20038;-82
2022/10/27 03:46:21;;;;;;;16.40;6.72;;;;;;;;;;5013113;28;20043;-82
2022/10/27 03:48:47;;;;;;;14.80;8.15;;;;;;;;;;4997322;28;20508;-82
2022/10/27 03:51:13;;;;;;;15.70;7.57;;;;;;;;;;5015085;28;20484;-82
2022/10/27 03:53:39;;;;;;;14.88;7.38;;;;;;;;;;4997336;28;20375;-82
2022/10/27 03:56:06;;;;;;;15.93;6.70;;;;;;;;;;4997271;28;20042;-82
2022/10/27 03:58:32;;;;;;;13.82;6.30;;;;;;;;;;5013590;28;20037;-82
2022/10/27 04:01:01;;;;;;;13.85;6.28;;;;;;;;;;4997401;28;20092;-82
2022/10/27 04:03:28;;;;;;;10.60;6.32;;;;;;;;;;5013750;28;20072;-82
2022/10/27 04:05:54;;;;;;;13.55;6.68;;;;;;;;;;4995315;28;20030;-82
2022/10/27 04:08:20;;;;;;;17.58;6.55;;;;;;;;;;4993607;28;20026;-82
2022/10/27 04:10:46;;;;;;;12.55;6.65;;;;;;;;;;4993670;28;20473;-82
2022/10/27 04:13:12;;;;;;;12.05;6.38;;;;;;;;;;4994382;28;20030;-83
2022/10/27 04:15:38;;;;;;;13.35;6.18;;;;;;;;;;4994299;28;20027;-82
2022/10/27 04:18:04;;;;;;;12.38;6.13;;;;;;;;;;4993607;28;20424;-82
2022/10/27 04:20:30;;;;;;;9.60;6.07;;;;;;;;;;4977804;28;20542;-82
2022/10/27 04:22:57;;;;;;;15.90;7.22;;;;;;;;;;4993561;28;20037;-82
2022/10/27 04:25:23;;;;;;;11.70;6.43;;;;;;;;;;4977451;28;20034;-82
2022/10/27 04:27:49;;;;;;;11.13;6.22;;;;;;;;;;4993782;28;20042;-82
2022/10/27 04:30:15;;;;;;;11.82;6.18;;;;;;;;;;4994665;28;20027;-82
2022/10/27 04:32:41;;;;;;;12.10;6.32;;;;;;;;;;4993554;28;20039;-82
2022/10/27 04:35:08;;;;;;;12.15;6.93;;;;;;;;;;4993166;28;20021;-82
2022/10/27 04:37:34;;;;;;;13.45;6.78;;;;;;;;;;4993116;28;20540;-82
2022/10/27 04:40:01;;;;;;;9.93;7.20;;;;;;;;;;4994499;28;20400;-83
2022/10/27 04:42:27;;;;;;;14.25;7.95;;;;;;;;;;4994323;28;20030;-82
2022/10/27 04:44:53;;;;;;;15.73;8.35;;;;;;;;;;4992997;28;20041;-82
2022/10/27 04:47:19;;;;;;;17.40;8.45;;;;;;;;;;4993260;28;20041;-82
2022/10/27 04:49:45;;;;;;;23.35;7.85;;;;;;;;;;4976745;28;20026;-82
2022/10/27 04:52:11;;;;;;;17.30;8.27;;;;;;;;;;4992986;28;20038;-82
2022/10/27 04:54:37;;;;;;;15.80;7.90;;;;;;;;;;4993016;28;20389;-82
2022/10/27 04:57:03;;;;;;;15.77;7.75;;;;;;;;;;4992600;28;20046;-82
2022/10/27 04:59:29;;;;;;;16.58;8.13;;;;;;;;;;4992682;28;20038;-82
2022/10/27 05:01:55;;;;;;;13.77;8.18;;;;;;;;;;4992836;28;20560;-82
2022/10/27 05:04:21;;;;;;;16.60;7.50;;;;;;;;;;4998120;28;20092;-82
2022/10/27 05:06:47;;;;;;;17.50;8.38;;;;;;;;;;4995884;28;20041;-82
2022/10/27 05:09:13;;;;;;;17.42;7.32;;;;;;;;;;4996038;28;20026;-82
2022/10/27 05:11:39;;;;;;;16.05;7.28;;;;;;;;;;4979884;28;20056;-82
2022/10/27 05:14:05;;;;;;;15.95;7.18;;;;;;;;;;4995959;28;20022;-82
2022/10/27 05:16:31;;;;;;;16.95;7.15;;;;;;;;;;4962576;28;20173;-82
2022/10/27 05:18:57;;;;;;;14.10;6.80;;;;;;;;;;4976630;28;20026;-82
2022/10/27 05:21:23;;;;;;;10.43;5.40;;;;;;;;;;4976253;28;20437;-82
2022/10/27 05:23:49;;;;;;;14.27;6.85;;;;;;;;;;4976044;28;20022;-82
2022/10/27 05:26:15;;;;;;;14.48;6.18;;;;;;;;;;4993148;28;20117;-83
2022/10/27 05:28:43;;;;;;;17.85;6.43;;;;;;;;;;4959955;28;20065;-82
2022/10/27 05:31:09;;;;;;;17.05;6.28;;;;;;;;;;4993423;28;20477;-82
2022/10/27 05:33:35;;;;;;;13.60;5.75;;;;;;;;;;4976025;28;20030;-82
2022/10/27 05:36:01;;;;;;;15.50;5.78;;;;;;;;;;4960121;28;20030;-82
2022/10/27 05:38:27;;;;;;;13.35;5.93;;;;;;;;;;4976154;28;20074;-82
2022/10/27 05:40:57;;;;;;;10.88;5.53;;;;;;;;;;4976436;28;20026;-82
2022/10/27 05:43:23;;;;;;;10.35;5.35;;;;;;;;;;4960179;28;20022;-82
2022/10/27 05:45:50;;;;;;;11.18;5.57;;;;;;;;;;4975979;28;20027;-82
2022/10/27 05:48:16;;;;;;;9.77;5.00;;;;;;;;;;4976043;28;20022;-82
2022/10/27 05:50:42;;;;;;;8.43;4.63;;;;;;;;;;4975927;28;20125;-82
2022/10/27 05:53:09;;;;;;;12.95;4.80;;;;;;;;;;4959985;28;20035;-82
2022/10/27 05:55:35;;;;;;;12.50;4.55;;;;;;;;;;4972017;28;20038;-82
2022/10/27 05:58:02;;;;;;;10.27;4.85;;;;;;;;;;4956615;28;20549;-82
2022/10/27 06:00:32;;;;;;;13.52;4.97;;;;;;;;;;4973890;28;20493;-82
2022/10/27 06:02:59;;;;;;;13.65;5.20;;;;;;;;;;4956501;28;20117;-82
2022/10/27 06:05:26;;;;;;;12.02;4.20;;;;;;;;;;4970569;28;20046;-82
2022/10/27 06:07:52;;;;;;;13.40;4.50;;;;;;;;;;4975405;28;20041;-82
2022/10/27 06:10:19;;;;;;;12.82;4.35;;;;;;;;;;4975639;28;20038;-82
2022/10/27 06:12:48;;;;;;;9.85;4.43;;;;;;;;;;4959709;28;20027;-82
2022/10/27 06:15:16;;;;;;;19.48;4.13;;;;;;;;;;4967754;28;20081;-82
2022/10/27 06:17:42;;;;;;;10.98;4.10;;;;;;;;;;4972469;28;20536;-82
2022/10/27 06:20:09;;;;;;;11.95;4.30;;;;;;;;;;4956538;28;20586;-82
2022/10/27 06:22:35;;;;;;;11.70;3.92;;;;;;;;;;4972345;28;20039;-82
2022/10/27 06:25:01;;;;;;;13.80;4.28;;;;;;;;;;4982773;28;20026;-82
2022/10/27 06:27:27;;;;;;;16.23;4.18;;;;;;;;;;4959590;28;20041;-82
2022/10/27 06:29:53;;;;;;;15.30;4.53;;;;;;;;;;4975743;28;20061;-82
2022/10/27 06:32:19;;;;;;;13.23;4.65;;;;;;;;;;4975760;28;20030;-82
2022/10/27 06:34:45;;;;;;;16.10;4.10;;;;;;;;;;4992950;28;20030;-83
2022/10/27 06:37:11;;;;;;;11.35;4.65;;;;;;;;;;4963314;28;20026;-82
2022/10/27 06:39:40;;;;;;;10.65;4.15;;;;;;;;;;4978793;28;20038;-82
2022/10/27 06:42:06;;;;;;;13.90;4.57;;;;;;;;;;4996491;28;20065;-82
2022/10/27 06:44:32;;;;;;;13.23;4.80;;;;;;;;;;4987860;28;20027;-82
2022/10/27 06:46:58;;;;;;;12.25;4.03;;;;;;;;;;4986400;28;20030;-82
2022/10/27 06:49:24;;;;;;;7.93;4.20;;;;;;;;;;4953342;28;20109;-82
2022/10/27 06:51:50;;;;;;;7.82;4.10;;;;;;;;;;4960167;28;20489;-82
2022/10/27 06:54:16;;;;;;;11.95;4.85;;;;;;;;;;4970616;28;20046;-82
2022/10/27 06:56:42;;;;;;;13.55;4.05;;;;;;;;;;5011503;28;20038;-82
2022/10/27 06:59:08;;;;;;;10.82;3.90;;;;;;;;;;5001108;28;20093;-82
2022/10/27 07:01:34;;;;;;;13.02;4.47;;;;;;;;;;4998734;28;20049;-82
2022/10/27 07:04:00;;;;;;;7.60;3.80;;;;;;;;;;4999563;28;20022;-82
2022/10/27 07:06:26;;;;;;;7.38;4.20;;;;;;;;;;4978740;28;20034;-82
2022/10/27 07:08:52;;;;;;;10.52;3.70;;;;;;;;;;4997953;28;20038;-82
2022/10/27 07:11:19;;;;;;;8.80;3.88;;;;;;;;;;5014011;28;20033;-82
2022/10/27 07:13:45;;;;;;;13.05;3.58;;;;;;;;;;5011399;28;20376;-82
2022/10/27 07:16:11;;;;;;;9.75;3.58;;;;;;;;;;4996650;28;20428;-82
2022/10/27 07:18:37;;;;;;;9.20;3.38;;;;;;;;;;4978837;28;20473;-82
2022/10/27 07:21:04;;;;;;;10.77;3.70;;;;;;;;;;4994784;28;20046;-82
2022/10/27 07:23:30;;;;;;;9.82;3.72;;;;;;;;;;4995906;28;20031;-82
2022/10/27 07:25:56;;;;;;;10.10;3.10;;;;;;;;;;4994603;28;20050;-82
2022/10/27 07:28:22;;;;;;;10.50;3.40;;;;;;;;;;4994568;28;20073;-82
2022/10/27 07:30:48;;;;;;;6.00;2.83;;;;;;;;;;4994533;28;20085;-82
2022/10/27 07:33:15;;;;;;;6.13;2.83;;;;;;;;;;4994529;28;20125;-82
2022/10/27 07:35:41;;;;;;;9.60;2.90;;;;;;;;;;5012788;28;20383;-82
2022/10/27 07:38:07;;;;;;;6.40;2.67;;;;;;;;;;4997529;28;20026;-82
2022/10/27 07:40:34;;;;;;;11.93;2.83;;;;;;;;;;5015287;28;20038;-82
2022/10/27 07:43:01;;;;;;;8.55;3.03;;;;;;;;;;5015368;28;20022;-82
2022/10/27 07:45:27;;;;;;;5.60;2.33;;;;;;;;;;5014691;28;20088;-82
2022/10/27 07:47:54;;;;;;;11.52;3.20;;;;;;;;;;4997257;28;20026;-82
2022/10/27 07:50:21;;;;;;;10.20;3.00;;;;;;;;;;5014247;28;20034;-82
2022/10/27 07:52:49;;;;;;;9.50;2.63;;;;;;;;;;5014961;28;20449;-82
2022/10/27 07:55:16;;;;;;;8.57;2.65;;;;;;;;;;4992154;28;20069;-82
2022/10/27 07:57:43;;;;;;;6.80;2.60;;;;;;;;;;4993980;28;20097;-82
2022/10/27 08:00:10;;;;;;;7.88;2.58;;;;;;;;;;4994165;28;20056;-82
2022/10/27 08:02:36;;;;;;;7.57;2.60;;;;;;;;;;4995274;28;20045;-82
2022/10/27 08:05:02;;;;;;;7.13;2.35;;;;;;;;;;5005333;28;20038;-83
2022/10/27 08:07:29;;;;;;;5.20;2.40;;;;;;;;;;4998879;28;20380;-80
2022/10/27 08:09:56;;;;;;;6.60;2.38;;;;;;;;;;5021984;28;20064;-82
2022/10/27 08:12:22;;;;;;;5.38;2.28;;;;;;;;;;5017289;28;20021;-82
2022/10/27 08:14:48;;;;;;;6.60;2.45;;;;;;;;;;5014064;28;20030;-82
2022/10/27 08:17:14;;;;;;;8.55;2.65;;;;;;;;;;4996857;28;20461;-82
2022/10/27 08:19:40;;;;;;;7.40;2.78;;;;;;;;;;5014512;28;20037;-82
2022/10/27 08:22:06;;;;;;;11.35;3.38;;;;;;;;;;5013233;28;20030;-82
2022/10/27 08:24:32;;;;;;;11.13;2.80;;;;;;;;;;5013147;28;20026;-81
2022/10/27 08:26:58;;;;;;;4.95;2.60;;;;;;;;;;5018517;28;20030;-82
2022/10/27 08:29:27;;;;;;;6.60;2.30;;;;;;;;;;4995985;28;20060;-82
2022/10/27 08:31:53;;;;;;;8.73;2.90;;;;;;;;;;5014649;28;20065;-82
2022/10/27 08:34:20;;;;;;;5.05;2.05;;;;;;;;;;5014124;28;20018;-82
2022/10/27 08:36:46;;;;;;;8.15;2.42;;;;;;;;;;4996861;28;20065;-82
2022/10/27 08:39:12;;;;;;;4.82;1.90;;;;;;;;;;5014071;28;20526;-82
2022/10/27 08:42:01;;;;;;;4.05;1.88;;;;;;;;;;4996681;28;20057;-81
2022/10/27 08:44:29;;;;;;;6.35;2.13;;;;;;;;;;5014307;28;20033;-81
2022/10/27 08:47:05;;;;;;;5.28;1.70;;;;;;;;;;4996655;28;20033;-81
2022/10/27 08:49:50;;;;;;;8.02;1.70;;;;;;;;;;4996564;28;20076;-81
2022/10/27 08:52:22;;;;;;;5.65;1.92;;;;;;;;;;5009231;28;20162;-82
2022/10/27 08:54:51;;;;;;;6.00;1.55;;;;;;;;;;5013421;28;20025;-82
2022/10/27 08:57:24;;;;;;;6.10;2.08;;;;;;;;;;4996394;28;20120;-82
2022/10/27 08:59:54;;;;;;;6.10;1.60;;;;;;;;;;5014049;28;20101;-80
2022/10/27 09:02:39;;;;;;;6.07;2.10;;;;;;;;;;5012921;28;20033;-80
2022/10/27 09:05:40;;;;;;;10.02;1.92;;;;;;;;;;5013594;28;20460;-80
2022/10/27 09:08:29;;;;;;;8.40;1.90;;;;;;;;;;4971934;28;20082;-79
2022/10/27 09:11:14;;;;;;;12.82;2.30;;;;;;;;;;5009934;28;20113;-79
2022/10/27 09:13:53;;;;;;;4.78;2.38;;;;;;;;;;4995734;28;20353;-79
2022/10/27 09:16:45;;;;;;;4.30;1.70;;;;;;;;;;5011641;28;20456;-79
2022/10/27 09:19:18;;;;;;;5.38;2.00;;;;;;;;;;4990838;28;20110;-79
2022/10/27 09:21:44;;;;;;;9.98;3.70;;;;;;;;;;5013634;28;20413;-80
2022/10/27 09:24:16;;;;;;;3.42;1.67;;;;;;;;;;5013460;28;20033;-79
2022/10/27 09:26:44;;;;;;;5.43;1.98;;;;;;;;;;5011999;28;20025;-79
2022/10/27 09:29:21;;;;;;;7.95;1.80;;;;;;;;;;4993101;28;20377;-80
2022/10/27 09:32:13;;;;;;;4.45;1.73;;;;;;;;;;4994899;28;20027;-79
2022/10/27 09:34:51;;;;;;;5.43;2.15;;;;;;;;;;5003350;28;20113;-80
2022/10/27 09:37:18;;;;;;;4.60;1.50;;;;;;;;;;5008507;28;20384;-80
2022/10/27 09:39:48;;;;;;;5.03;1.40;;;;;;;;;;5008461;28;20122;-79
2022/10/27 09:42:15;;;;;;;3.45;1.15;;;;;;;;;;4998476;28;20457;-79
2022/10/27 09:44:44;;;;;;;4.00;1.20;;;;;;;;;;5004715;28;20026;-79
2022/10/27 09:47:13;;;;;;;9.75;1.65;;;;;;;;;;5000850;28;20033;-80
2022/10/27 09:49:41;;;;;;;8.50;1.35;;;;;;;;;;5009723;28;20034;-79
2022/10/27 09:52:12;;;;;;;4.30;1.50;;;;;;;;;;5012524;28;20018;-79
2022/10/27 09:54:41;;;;;;;7.30;1.15;;;;;;;;;;4980308;28;20019;-79
2022/10/27 09:57:12;;;;;;;7.65;1.30;;;;;;;;;;4992786;28;20035;-79
2022/10/27 09:59:39;;;;;;;4.90;0.95;;;;;;;;;;5006868;28;20498;-80
2022/10/27 10:02:05;;;;;;;7.63;1.10;;;;;;;;;;4993958;28;20049;-80
2022/10/27 10:04:36;;;;;;;5.00;1.00;;;;;;;;;;5000324;28;20018;-81
2022/10/27 10:07:04;;;;;;;4.50;1.05;;;;;;;;;;4996184;28;20433;-81
2022/10/27 10:09:31;;;;;;;4.72;0.98;;;;;;;;;;4992695;28;20116;-82
2022/10/27 10:12:16;;;;;;;8.13;1.00;;;;;;;;;;5009337;28;20149;-81
2022/10/27 10:14:42;;;;;;;6.57;1.20;;;;;;;;;;4993344;28;20039;-81
2022/10/27 10:17:35;;;;;;;9.20;1.00;;;;;;;;;;4996142;28;20036;-81
2022/10/27 10:20:01;;;;;;;3.83;0.88;;;;;;;;;;4999660;28;20045;-81
2022/10/27 10:22:29;;;;;;;7.45;1.33;;;;;;;;;;4999383;28;20018;-81
2022/10/27 10:24:57;;;;;;;3.88;1.08;;;;;;;;;;4995199;28;20030;-81
2022/10/27 10:27:26;;;;;;;3.50;1.00;;;;;;;;;;4996518;28;20387;-81
2022/10/27 10:29:52;;;;;;;3.47;1.10;;;;;;;;;;5011019;28;20022;-81
2022/10/27 10:32:22;;;;;;;3.50;1.05;;;;;;;;;;4998426;28;20045;-81
2022/10/27 10:34:50;;;;;;;2.78;1.00;;;;;;;;;;5012058;28;20049;-81
2022/10/27 10:37:30;;;;;;;4.60;1.00;;;;;;;;;;5005240;28;20105;-81
2022/10/27 10:40:08;;;;;;;5.50;1.08;;;;;;;;;;4988666;28;20503;-81
2022/10/27 10:42:34;;;;;;;5.32;1.00;;;;;;;;;;5012671;28;20558;-81
2022/10/27 10:45:20;;;;;;;6.72;1.10;;;;;;;;;;4998426;28;20454;-81
2022/10/27 10:47:47;;;;;;;3.45;0.70;;;;;;;;;;5016046;28;20117;-82
2022/10/27 10:50:16;;;;;;;4.32;1.20;;;;;;;;;;5010162;28;20026;-80
2022/10/27 10:52:51;;;;;;;5.15;1.02;;;;;;;;;;4995114;28;20474;-80
2022/10/27 10:55:17;;;;;;;2.30;1.00;;;;;;;;;;5007913;28;20049;-79
2022/10/27 10:57:45;;;;;;;2.58;0.93;;;;;;;;;;5004690;28;20440;-80
2022/10/27 11:00:18;;;;;;;3.13;0.90;;;;;;;;;;5009456;28;20453;-80
2022/10/27 11:02:59;;;;;;;3.75;1.30;;;;;;;;;;4983961;28;20038;-80
2022/10/27 11:05:30;;;;;;;4.82;1.02;;;;;;;;;;4984661;28;20346;-80
2022/10/27 11:07:56;;;;;;;5.55;0.90;;;;;;;;;;4999425;28;20038;-79
2022/10/27 11:10:22;;;;;;;6.70;1.60;;;;;;;;;;5002597;28;20089;-80
2022/10/27 11:12:58;;;;;;;6.72;1.80;;;;;;;;;;4995447;28;20400;-79
2022/10/27 11:15:26;;;;;;;3.50;1.15;;;;;;;;;;4998638;28;20026;-80
2022/10/27 11:17:53;;;;;;;4.65;1.00;;;;;;;;;;4999266;28;20441;-80
2022/10/27 11:20:31;;;;;;;7.82;0.90;;;;;;;;;;4978573;28;20037;-80
2022/10/27 11:22:58;;;;;;;1.73;0.70;;;;;;;;;;4995476;28;20037;-80
2022/10/27 11:25:33;;;;;;;2.70;0.98;;;;;;;;;;4994265;28;20053;-81
2022/10/27 11:28:15;;;;;;;4.57;0.80;;;;;;;;;;4994611;28;20053;-81
2022/10/27 11:30:55;;;;;;;5.28;1.00;;;;;;;;;;4995372;28;20026;-80
2022/10/27 11:33:40;;;;;;;11.20;1.02;;;;;;;;;;4994018;28;20058;-80
2022/10/27 11:36:06;;;;;;;4.07;1.00;;;;;;;;;;4995308;28;20029;-80
2022/10/27 11:38:52;;;;;;;6.63;1.02;;;;;;;;;;4995609;28;20081;-80
2022/10/27 11:41:40;;;;;;;4.43;1.15;;;;;;;;;;4981866;28;20562;-80
2022/10/27 11:44:12;;;;;;;4.47;1.15;;;;;;;;;;5014922;28;20060;-80
2022/10/27 11:46:40;;;;;;;;;;;;;;;;;;5015323;28;20031;-80
2022/10/27 11:49:15;;;;;;;5.75;1.27;;;;;;;;;;4997246;28;19909;-79
2022/10/27 11:51:52;;;;;;;6.00;1.13;;;;;;;;;;5014743;28;20029;-80
2022/10/27 11:54:18;;;;;;;2.85;1.10;;;;;;;;;;5014454;28;20022;-80
2022/10/27 11:56:59;;;;;;;4.57;0.93;;;;;;;;;;5014548;28;20457;-79
2022/10/27 11:59:25;;;;;;;4.47;1.10;;;;;;;;;;5014687;28;20041;-80
2022/10/27 12:02:09;;;;;;;5.05;1.20;;;;;;;;;;5014969;28;20034;-80
2022/10/27 12:04:44;;;;;;;6.82;1.20;;;;;;;;;;4996690;28;20113;-80
2022/10/27 12:07:19;;;;;;;2.67;1.20;;;;;;;;;;5014448;28;20057;-80
2022/10/27 12:09:54;;;;;;;5.22;0.80;;;;;;;;;;5014596;28;20108;-80
2022/10/27 12:12:28;;;;;;;3.30;0.90;;;;;;;;;;4996646;28;20025;-80
2022/10/27 12:15:01;;;;;;;3.85;1.05;;;;;;;;;;5007199;28;20045;-80
2022/10/27 12:17:27;;;;;;;;;;;;;;;;;;4995539;28;20022;-80
2022/10/27 12:19:55;;;;;;;4.93;1.00;;;;;;;;;;4994718;28;19917;-80
2022/10/27 12:22:21;;;;;;;6.57;1.95;;;;;;;;;;4994420;28;20491;-80
2022/10/27 12:24:59;;;;;;;7.90;1.08;;;;;;;;;;5014105;28;20106;-80
2022/10/27 12:27:34;;;;;;;3.33;1.38;;;;;;;;;;5013942;28;20092;-80
2022/10/27 12:30:03;;;;;;;9.57;1.17;;;;;;;;;;4996316;28;20026;-80
2022/10/27 12:32:38;;;;;;;4.72;1.08;;;;;;;;;;5013736;28;20038;-80
2022/10/27 12:35:08;;;;;;;7.03;0.90;;;;;;;;;;5014050;28;20036;-80
2022/10/27 12:37:34;;;;;;;5.97;1.00;;;;;;;;;;5013523;28;20029;-80
2022/10/27 12:40:23;;;;;;;4.20;1.02;;;;;;;;;;5013660;28;20109;-80
2022/10/27 12:42:55;;;;;;;6.75;1.00;;;;;;;;;;5013644;28;20404;-80
2022/10/27 12:45:40;;;;;;;6.65;1.10;;;;;;;;;;5014051;28;20088;-81
2022/10/27 12:48:20;;;;;;;8.07;1.33;;;;;;;;;;4996497;28;20121;-81
2022/10/27 12:50:59;;;;;;;6.03;1.05;;;;;;;;;;5013329;28;20032;-81
2022/10/27 12:53:25;;;;;;;7.90;1.20;;;;;;;;;;4988106;28;20416;-80
2022/10/27 12:55:54;;;;;;;5.43;1.25;;;;;;;;;;4999114;28;20042;-80
2022/10/27 12:58:32;;;;;;;1.73;0.80;;;;;;;;;;4995336;28;20019;-80
2022/10/27 13:01:11;;;;;;;2.70;1.10;;;;;;;;;;5004948;28;20057;-81
2022/10/27 13:03:56;;;;;;;4.45;1.08;;;;;;;;;;5005822;28;20026;-81
2022/10/27 13:06:28;;;;;;;5.75;0.98;;;;;;;;;;5003207;28;20021;-80
2022/10/27 13:08:54;;;;;;;5.63;1.13;;;;;;;;;;4991709;28;20054;-81
2022/10/27 13:11:23;;;;;;;5.95;1.08;;;;;;;;;;4993611;28;20022;-81
2022/10/27 13:14:01;;;;;;;3.83;1.20;;;;;;;;;;5010656;28;20084;-81
2022/10/27 13:16:42;;;;;;;4.78;1.23;;;;;;;;;;4999829;28;20030;-81
2022/10/27 13:19:09;;;;;;;5.75;1.10;;;;;;;;;;4984242;28;20495;-81
2022/10/27 13:21:44;;;;;;;4.70;1.00;;;;;;;;;;5003062;28;20030;-81
2022/10/27 13:24:22;;;;;;;7.03;1.30;;;;;;;;;;5004573;28;20014;-81
2022/10/27 13:27:11;;;;;;;4.75;1.55;;;;;;;;;;4976324;28;20030;-81
2022/10/27 13:29:47;;;;;;;9.70;1.30;;;;;;;;;;5004718;28;20092;-81
2022/10/27 13:32:22;;;;;;;5.75;1.73;;;;;;;;;;5012779;28;20123;-79
2022/10/27 13:35:00;;;;;;;6.05;1.25;;;;;;;;;;4997167;28;20023;-80
2022/10/27 13:37:37;;;;;;;5.72;1.27;;;;;;;;;;5008156;28;20159;-82
2022/10/27 13:40:23;;;;;;;2.70;1.10;;;;;;;;;;5012756;28;20066;-82
2022/10/27 13:42:53;;;;;;;9.45;1.30;;;;;;;;;;5012692;28;20449;-82
2022/10/27 13:45:36;;;;;;;11.55;1.50;;;;;;;;;;5012715;28;20030;-82
2022/10/27 13:48:09;;;;;;;6.78;1.25;;;;;;;;;;5012332;28;20030;-81
2022/10/27 13:50:41;;;;;;;5.22;1.15;;;;;;;;;;5001858;28;20033;-81
2022/10/27 13:53:16;;;;;;;4.40;1.10;;;;;;;;;;4976632;28;20027;-81
2022/10/27 13:55:42;;;;;;;4.75;1.15;;;;;;;;;;5001180;28;20520;-80
2022/10/27 13:58:18;;;;;;;6.57;1.10;;;;;;;;;;5009553;28;20038;-80
2022/10/27 14:01:03;;;;;;;5.13;1.00;;;;;;;;;;4989984;28;20026;-80
2022/10/27 14:03:29;;;;;;;5.72;1.10;;;;;;;;;;4980127;28;20033;-80
2022/10/27 14:05:55;;;;;;;5.03;1.25;;;;;;;;;;4999378;28;20045;-80
2022/10/27 14:08:32;;;;;;;4.40;1.35;;;;;;;;;;4981678;28;20038;-80
2022/10/27 14:11:00;;;;;;;5.60;1.33;;;;;;;;;;5000127;28;20030;-80
2022/10/27 14:13:32;;;;;;;6.65;1.67;;;;;;;;;;4999675;28;20018;-80
2022/10/27 14:16:00;;;;;;;7.30;1.33;;;;;;;;;;4995406;28;20030;-81
2022/10/27 14:18:29;;;;;;;6.18;1.20;;;;;;;;;;5009142;28;20072;-80
2022/10/27 14:20:56;;;;;;;4.78;1.25;;;;;;;;;;4998246;28;20418;-80
2022/10/27 14:23:22;;;;;;;9.07;1.10;;;;;;;;;;4996035;28;20027;-81
2022/10/27 14:25:48;;;;;;;6.93;1.60;;;;;;;;;;5006635;28;20108;-80
2022/10/27 14:28:14;;;;;;;5.65;1.48;;;;;;;;;;4990129;28;20136;-80
2022/10/27 14:30:41;;;;;;;7.18;1.42;;;;;;;;;;5012736;28;20033;-80
2022/10/27 14:33:22;;;;;;;8.43;2.30;;;;;;;;;;4996438;28;20023;-80
2022/10/27 14:35:48;;;;;;;7.70;2.25;;;;;;;;;;4992281;28;20437;-80
2022/10/27 14:38:15;;;;;;;5.13;2.08;;;;;;;;;;4998908;28;20417;-79
2022/10/27 14:40:42;;;;;;;3.95;1.77;;;;;;;;;;5010096;28;20033;-80
2022/10/27 14:43:22;;;;;;;11.57;2.10;;;;;;;;;;4994072;28;20415;-80
2022/10/27 14:45:52;;;;;;;6.07;1.50;;;;;;;;;;4990748;28;20045;-79
2022/10/27 14:48:23;;;;;;;4.38;1.23;;;;;;;;;;5002553;28;20477;-79
2022/10/27 14:50:49;;;;;;;6.22;1.48;;;;;;;;;;5004181;28;20030;-79